METAR Data
IDs: Format: Raw Decoded Include TAF

Data at: 0822 UTC 30 Oct 2020

KPOU 300753Z AUTO 01006KT 5SM BR FEW009 SCT014 OVC022 06/04 A2974 RMK AO2 SLP069 T00560039
KPOU 300653Z AUTO 01009KT 8SM OVC012 06/04 A2973 RMK AO2 RAB08E30 SLP065 P0001 T00560039
KPOU 300604Z AUTO 36009KT 6SM BR SCT008 OVC012 06/04 A2972 RMK AO2 T00610044
KPOU 300553Z AUTO 36007KT 5SM BR SCT010 OVC015 06/04 A2974 RMK AO2 RAE0459B26E45 PRESRR SLP069 P0001 60010 T00610044 10083 20061 53018
KPOU 300521Z AUTO 01009KT 6SM BR OVC011 06/05 A2970 RMK AO2 RAE0459 P0000 T00610050
KPOU 300502Z AUTO 36007KT 5SM BR BKN008 OVC014 07/05 A2971 RMK AO2 RAE0459 P0000 T00670050
KPOU 300453Z AUTO 01009G17KT 4SM -RA BR OVC010 07/05 A2971 RMK AO2 RAB16 SLP057 P0001 T00670050 400890067
KPOU 300418Z 36008KT 3SM -RA BR BKN009 OVC016 07/06 A2971 RMK AO2 RAB16 CIG 006V013 P0000 T00670056
KPOU 300353Z 01008KT 4SM BR BKN011 OVC018 07/06 A2970 RMK AO2 RAE20 SLP055 P0001 T00720056
KPOU 300323Z 36011KT 10SM FEW009 BKN014 OVC022 07/06 A2969 RMK AO2 RAE20 P0000 T00720056
KPOU 300253Z 01009KT 4SM -RA BR FEW007 BKN015 OVC023 07/06 A2969 RMK AO2 SLP050 P0003 60007 T00720056 51016
KPOU 300200Z 36007KT 4SM -RA BR SCT007 BKN010 OVC019 08/06 A2967 RMK AO2 P0000 T00780061
KPOU 300153Z 36009KT 4SM -RA BR BKN007 BKN013 OVC019 08/06 A2967 RMK AO2 SLP044 P0003 T00780061
KPOU 300148Z 36009KT 3SM -RA BR BKN007 BKN013 OVC019 08/06 A2967 RMK AO2 P0002
KPOU 300120Z 01007KT 3SM -RA BR SCT007 BKN013 OVC021 08/07 A2966 RMK AO2 P0001 T00780067
KPOU 300053Z 01008KT 4SM -RA BR FEW006 OVC021 08/07 A2964 RMK AO2 RAE11B46 SLP034 P0001 T00780067
KPOU 300014Z 01007KT 7SM FEW009 BKN020 OVC030 08/07 A2963 RMK AO2 RAE11 P0000 T00780067
KPOU 292353Z 02007KT 4SM -RA BR SCT010 SCT017 OVC028 08/07 A2963 RMK AO2 SLP033 P0004 60055 T00830067 10089 20078 58008
KPOU 292340Z 02008KT 3SM -RA BR FEW008 BKN015 OVC021 08/07 A2964 RMK AO2 P0003 T00830067
KPOU 292324Z 02008KT 4SM -RA BR FEW006 BKN014 OVC021 08/07 A2965 RMK AO2 P0002 T00830067
KPOU 292306Z 01009KT 3SM -RA BR FEW005 SCT008 OVC016 08/07 A2965 RMK AO2 P0001 T00830067
KPOU 292253Z 01009KT 2 1/2SM RA BR FEW006 BKN012 OVC017 08/07 A2965 RMK AO2 SLP040 P0007 T00830067
KPOU 292237Z 01009KT 3SM -RA BR SCT007 BKN011 OVC017 08/07 A2965 RMK AO2 P0005 T00830067
KPOU 292229Z 01010KT 2 1/2SM RA BR SCT007 OVC015 08/07 A2965 RMK AO2 P0004 T00830067
KPOU 292218Z 02009KT 2 1/2SM -RA BR BKN007 OVC016 08/07 A2965 RMK AO2 P0003 T00830067
KPOU 292203Z 36008KT 3SM -RA BR SCT005 BKN009 OVC027 08/07 A2966 RMK AO2 P0001 T00830067
KPOU 292153Z 01008KT 1 1/2SM -RA BR SCT005 BKN009 OVC016 08/07 A2966 RMK AO2 SLP041 P0007 T00830072
KPOU 292115Z 01009KT 1 3/4SM -RA BR FEW006 BKN024 OVC035 08/07 A2966 RMK AO2 P0002 T00830067
KPOU 292112Z 01009KT 2SM -RA BR FEW006 BKN014 OVC035 08/07 A2967 RMK AO2 P0001 T00830067
KPOU 292105Z 01009KT 3SM -RA BR FEW006 BKN025 OVC034 08/07 A2967 RMK AO2 P0001 T00830072
KPOU 292053Z 02007KT 3SM -RA BR FEW007 SCT011 OVC034 08/07 A2966 RMK AO2 SLP041 P0011 60037 T00830072 56042
KPOU 292038Z 01006KT 2SM RA BR SCT008 SCT011 OVC034 08/07 A2966 RMK AO2 P0010 T00830072
KPOU 292027Z 02006KT 3SM -RA BR FEW008 OVC037 08/07 A2966 RMK AO2 P0007 T00830067
KPOU 291955Z 02007KT 2 1/2SM RA BR SCT007 SCT013 OVC031 08/07 A2968 RMK AO2 P0001 T00830072
KPOU 291953Z 01006KT 2 1/2SM RA BR SCT007 BKN013 OVC031 08/07 A2968 RMK AO2 SLP048 P0015 T00830072
KPOU 291946Z 02006KT 2SM RA BR BKN007 BKN013 OVC035 08/07 A2969 RMK AO2 P0014 T00830072
KPOU 291937Z 01005KT 2 1/2SM +RA BR SCT007 BKN010 OVC045 08/07 A2969 RMK AO2 P0011 T00830072
KPOU 291853Z 03008KT 2 1/2SM RA BR FEW006 BKN050 OVC070 08/07 A2971 RMK AO2 PRESFR SLP057 P0011 T00830072
KPOU 291809Z 04006KT 2 1/2SM RA BR FEW029 BKN060 OVC080 08/07 A2974 RMK AO2 PRESFR P0004 T00830072
KPOU 291800Z 01004KT 2 1/2SM +RA BR FEW006 BKN029 OVC055 08/07 A2977 RMK AO2 P0002 T00830072
KPOU 291753Z 00000KT 2 1/2SM RA BR SCT029 BKN045 OVC060 08/07 A2978 RMK AO2 SLP083 P0012 60062 T00830072 10089 20083 58022
KPOU 291653Z 05004KT 2 1/2SM -RA BR OVC055 08/07 A2980 RMK AO2 SLP089 P0013 T00830072
KPOU 291553Z 11004KT 2 1/2SM RA BR FEW009 OVC050 09/07 A2985 RMK AO2 SLP105 P0014 T00890067
KPOU 291537Z 12005KT 2 1/2SM RA BR SCT009 BKN048 OVC060 09/07 A2985 RMK AO2 P0010 T00890072
KPOU 291453Z 00000KT 4SM -RA BR FEW009 OVC055 09/08 A2985 RMK AO2 SLP105 P0007 60023 T00890078 58017
KPOU 291353Z 00000KT 2 1/2SM -RA BR OVC055 09/08 A2988 RMK AO2 SLP115 P0009 T00890078
KPOU 291326Z 00000KT 2SM -RA BR SCT055 OVC075 08/07 A2989 RMK AO2 P0007 T00830072
KPOU 291325Z 00000KT 2SM -RA BR SCT060 OVC075 08/07 A2989 RMK AO2 P0007 T00830072
KPOU 291321Z 00000KT 2SM RA BR SCT060 OVC075 08/08 A2989 RMK AO2 P0007 T00830078
KPOU 291253Z 03004KT 3SM RA BR FEW065 OVC080 08/07 A2990 RMK AO2 SLP123 P0007 T00830072
KPOU 291153Z 00000KT 9SM -RA FEW065 FEW080 OVC095 08/07 A2990 RMK AO2 RAB04 SLP123 P0002 60002 70014 T00830072 10083 20067 58010
KPOU 291053Z AUTO 02003KT 10SM BKN100 OVC120 08/07 A2992 RMK AO2 SLP127 T00830072
KPOU 290953Z AUTO 00000KT 10SM OVC085 08/07 A2993 RMK AO2 SLP132 T00830072
KPOU 290853Z AUTO 00000KT 10SM BKN110 08/07 A2993 RMK AO2 SLP132 T00780067 57005
KPOU 290753Z AUTO 00000KT 10SM BKN110 08/07 A2993 RMK AO2 SLP133 T00780067
KPOU 290653Z AUTO 00000KT 10SM CLR 07/06 A2994 RMK AO2 SLP136 T00720061
KPOU 290553Z AUTO 00000KT 10SM CLR 07/06 A2995 RMK AO2 SLP138 T00670061 10094 20067 58006
KPOU 290453Z AUTO 00000KT 10SM CLR 07/06 A2996 RMK AO2 SLP143 T00720061 401280067
KPOU 290353Z AUTO 00000KT 10SM SCT002 07/06 A2996 RMK AO2 SLP144 T00670056
KPOU 290336Z AUTO 00000KT 10SM SCT002 07/06 A2996 RMK AO2 T00670056
KPOU 290253Z AUTO 00000KT 10SM CLR 07/06 A2996 RMK AO2 SLP144 T00670056 58003
KPOU 290153Z AUTO 00000KT 10SM CLR 08/07 A2997 RMK AO2 SLP148 T00780072
KPOU 290053Z AUTO 00000KT 10SM CLR 08/07 A2997 RMK AO2 SLP145 T00780067
KPOU 290012Z AUTO 00000KT 10SM FEW001 08/08 A2997 RMK AO2 T00830078
KPOU 290005Z AUTO 00000KT 2 1/2SM BR FEW001 09/08 A2997 RMK AO2 T00890078
KPOU 282353Z AUTO 00000KT 10SM CLR 09/08 A2997 RMK AO2 SLP147 T00940083 10128 20089 53009
KPOU 282253Z AUTO 00000KT 10SM CLR 10/09 A2996 RMK AO2 SLP141 T01000089
KPOU 282153Z AUTO 00000KT 10SM OVC047 12/09 A2995 RMK AO2 SLP138 T01220094
KPOU 282053Z AUTO 00000KT 10SM BKN032 OVC044 12/09 A2995 RMK AO2 SLP137 T01220094 56002
KPOU 282024Z AUTO 00000KT 10SM FEW019 BKN034 OVC041 12/09 A2995 RMK AO2 T01220094